KG-0011 weather

Sretenka Airport
Sretenka, Chuy Region, Kyrgyzstan

Public forecast

Using degrees Celsius for public forecast. Weather courtesy of forecast.io.

Closest aviation weather report (METAR) to Sretenka Airport

Closest report is Manas International Airport, 18.1 nm (33.4 km) ENE. Retrieved 2020/02/25 21:30 UTC (40 minutes ago):

UCFM 252130Z 11002MPS 7000 NSC 02/00 Q1016 R08/0///95 NOSIG

Closest aviation forecast (TAF) to Sretenka Airport

Closest forecast is Manas International Airport, 18.1 nm (33.4 km) ENE. Retrieved 2020/02/25 18:00 UTC (4 hours ago):

TAF UCFM 251645Z 2518/2618 14003G08MPS 3000 BR SCT050 TEMPO 2518/2524 09007G12MPS 1500 BR FU SCT007 TEMPO 2600/2605 08007G12MPS 1500 BR FU SCT005 FM260500 30003G08MPS 9999 SCT050CB